Time;durP1;ratioP1;P1;durP2;ratioP2;P2;SDS_P1;SDS_P2;PMS_P1;PMS_P2;Temp;Humidity;BMP_temperature;BMP_pressure;BME280_temperature;BME280_humidity;BME280_pressure;Samples;Min_cycle;Max_cycle;Signal;HPM_P1;HPM_P2
2022/03/11 00:01:45;;;;;;;12.20;9.37;;;9.80;54.10;;;;;;4935623;29;20181;-70
2022/03/11 00:04:11;;;;;;;12.73;9.53;;;9.80;54.20;;;;;;4935306;29;20614;-71
2022/03/11 00:06:37;;;;;;;11.43;9.20;;;9.70;54.40;;;;;;4935541;29;20243;-71
2022/03/11 00:09:03;;;;;;;14.30;9.37;;;9.70;54.30;;;;;;4936779;29;20182;-71
2022/03/11 00:11:30;;;;;;;13.13;9.30;;;9.60;54.40;;;;;;4938887;29;20225;-71
2022/03/11 00:13:56;;;;;;;13.23;9.37;;;9.60;54.40;;;;;;4939014;29;20668;-70
2022/03/11 00:16:22;;;;;;;12.60;9.13;;;9.60;54.40;;;;;;4939118;29;20172;-70
2022/03/11 00:18:48;;;;;;;12.83;9.00;;;9.60;54.50;;;;;;4938901;29;20174;-70
2022/03/11 00:21:14;;;;;;;12.03;8.70;;;9.60;54.60;;;;;;4938745;29;20166;-70
2022/03/11 00:23:42;;;;;;;11.20;8.47;;;9.60;54.40;;;;;;4938611;29;20545;-70
2022/03/11 00:26:08;;;;;;;11.93;9.10;;;9.60;54.20;;;;;;4938582;29;20355;-70
2022/03/11 00:28:34;;;;;;;11.47;8.50;;;9.50;54.40;;;;;;4938263;29;20225;-70
2022/03/11 00:31:00;;;;;;;12.47;8.93;;;9.50;54.10;;;;;;4938710;29;20260;-70
2022/03/11 00:33:25;;;;;;;10.60;7.80;;;9.50;54.10;;;;;;4937200;29;20188;-71
2022/03/11 00:35:51;;;;;;;12.53;8.27;;;9.50;54.10;;;;;;4938724;29;20617;-71
2022/03/11 00:38:17;;;;;;;10.60;8.10;;;9.60;54.10;;;;;;4937170;29;20178;-70
2022/03/11 00:40:42;;;;;;;10.30;7.83;;;9.60;54.00;;;;;;4936953;29;20641;-70
2022/03/11 00:43:08;;;;;;;15.63;8.67;;;9.50;54.00;;;;;;4938305;29;20181;-70
2022/03/11 00:45:33;;;;;;;8.70;7.57;;;9.50;54.00;;;;;;4938508;29;20220;-70
2022/03/11 00:47:59;;;;;;;9.93;7.63;;;9.50;53.90;;;;;;4938378;29;20679;-70
2022/03/11 00:50:25;;;;;;;10.97;8.10;;;9.50;54.00;;;;;;4938446;29;20178;-70
2022/03/11 00:52:51;;;;;;;11.10;8.37;;;9.50;54.00;;;;;;4938313;29;20197;-70
2022/03/11 00:55:17;;;;;;;9.60;7.67;;;9.50;54.20;;;;;;4937950;29;20537;-71
2022/03/11 00:57:42;;;;;;;9.00;7.50;;;9.40;54.30;;;;;;4938083;29;20180;-70
2022/03/11 01:00:09;;;;;;;10.10;8.13;;;9.40;54.30;;;;;;4938267;29;20184;-70
2022/03/11 01:02:36;;;;;;;10.37;7.60;;;9.40;54.40;;;;;;4938070;29;20653;-70
2022/03/11 01:05:06;;;;;;;9.80;8.17;;;9.30;54.20;;;;;;4938056;29;20261;-70
2022/03/11 01:07:32;;;;;;;8.70;7.67;;;9.40;54.40;;;;;;4937973;29;20224;-70
2022/03/11 01:09:58;;;;;;;11.27;7.97;;;9.30;54.60;;;;;;4937732;29;20196;-70
2022/03/11 01:12:24;;;;;;;12.33;8.33;;;9.30;54.70;;;;;;4937933;29;20581;-70
2022/03/11 01:14:49;;;;;;;12.63;9.77;;;9.20;54.90;;;;;;4938059;29;20185;-70
2022/03/11 01:17:15;;;;;;;13.83;9.57;;;9.10;55.20;;;;;;4938036;29;20182;-71
2022/03/11 01:19:41;;;;;;;13.83;9.13;;;9.00;55.40;;;;;;4937718;29;20181;-70
2022/03/11 01:22:07;;;;;;;16.80;10.27;;;8.90;55.70;;;;;;4937408;29;20285;-69
2022/03/11 01:24:33;;;;;;;17.93;11.53;;;8.90;55.80;;;;;;4937694;29;20610;-69
2022/03/11 01:26:59;;;;;;;18.47;13.00;;;8.80;56.00;;;;;;4937699;29;20184;-69
2022/03/11 01:29:25;;;;;;;17.70;10.73;;;8.80;56.10;;;;;;4937454;29;20237;-69
2022/03/11 01:31:51;;;;;;;15.37;9.33;;;8.70;56.10;;;;;;4937661;29;20169;-70
2022/03/11 01:34:17;;;;;;;15.27;10.60;;;8.70;56.20;;;;;;4937452;29;20174;-70
2022/03/11 01:36:43;;;;;;;14.33;9.70;;;8.70;56.40;;;;;;4937551;29;20188;-70
2022/03/11 01:39:09;;;;;;;11.27;8.80;;;8.60;56.50;;;;;;4937281;29;20660;-69
2022/03/11 01:41:35;;;;;;;10.67;7.97;;;8.60;56.60;;;;;;4937493;29;20188;-70
2022/03/11 01:44:06;;;;;;;11.10;7.93;;;8.60;56.70;;;;;;4937453;29;20691;-69
2022/03/11 01:46:32;;;;;;;12.60;6.93;;;8.60;55.90;;;;;;4937556;29;20169;-70
2022/03/11 01:49:00;;;;;;;27.73;18.43;;;8.80;55.30;;;;;;4937245;29;20185;-69
2022/03/11 01:51:27;;;;;;;9.63;7.20;;;8.80;55.00;;;;;;4936837;29;20532;-70
2022/03/11 01:53:54;;;;;;;9.57;6.97;;;8.90;53.90;;;;;;4937100;29;20534;-70
2022/03/11 01:56:20;;;;;;;13.10;7.20;;;9.10;53.50;;;;;;4937202;29;20177;-70
2022/03/11 01:58:54;;;;;;;12.30;6.77;;;9.20;53.00;;;;;;4937155;29;20185;-71
2022/03/11 02:01:21;;;;;;;11.23;8.00;;;9.20;52.60;;;;;;4937032;29;20641;-70
2022/03/11 02:03:47;;;;;;;12.43;8.00;;;9.30;52.30;;;;;;4936994;29;20212;-70
2022/03/11 02:06:14;;;;;;;9.57;7.20;;;9.40;52.10;;;;;;4936605;29;20213;-70
2022/03/11 02:08:40;;;;;;;7.83;6.07;;;9.40;51.90;;;;;;4936692;29;20173;-70
2022/03/11 02:11:06;;;;;;;7.73;6.90;;;9.40;51.50;;;;;;4936924;29;20633;-70
2022/03/11 02:13:49;;;;;;;21.37;12.23;;;9.40;51.50;;;;;;4936917;29;20177;-70
2022/03/11 02:16:17;;;;;;;10.30;6.60;;;9.40;51.30;;;;;;4936855;29;20263;-69
2022/03/11 02:18:42;;;;;;;15.53;8.83;;;9.40;51.10;;;;;;4936546;29;20208;-70
2022/03/11 02:21:09;;;;;;;9.87;6.83;;;9.40;51.10;;;;;;4936295;29;20622;-70
2022/03/11 02:23:56;;;;;;;14.60;9.03;;;9.40;51.20;;;;;;4936734;29;20173;-69
2022/03/11 02:26:23;;;;;;;11.43;8.20;;;9.40;51.10;;;;;;4936627;29;20664;-70
2022/03/11 02:28:50;;;;;;;12.37;7.20;;;9.40;51.30;;;;;;4936250;29;20287;-69
2022/03/11 02:31:18;;;;;;;13.60;9.40;;;9.40;51.10;;;;;;4936366;29;20177;-69
2022/03/11 02:33:44;;;;;;;8.27;6.87;;;9.40;50.90;;;;;;4936386;29;20184;-69
2022/03/11 02:36:10;;;;;;;9.63;7.20;;;9.40;50.90;;;;;;4936224;29;20181;-70
2022/03/11 02:38:36;;;;;;;10.87;7.20;;;9.30;51.00;;;;;;4936592;29;20234;-69
2022/03/11 02:41:01;;;;;;;8.83;6.83;;;9.30;51.00;;;;;;4936201;29;20182;-69
2022/03/11 02:43:27;;;;;;;9.10;6.60;;;9.30;51.00;;;;;;4936316;29;20174;-70
2022/03/11 02:45:53;;;;;;;8.80;6.87;;;9.30;51.10;;;;;;4936232;29;20245;-69
2022/03/11 02:48:19;;;;;;;10.40;8.00;;;9.40;50.70;;;;;;4936120;29;20175;-70
2022/03/11 02:50:44;;;;;;;12.23;7.83;;;9.30;50.90;;;;;;4935929;29;20638;-71
2022/03/11 02:53:10;;;;;;;10.43;7.03;;;9.30;51.20;;;;;;4936374;29;20181;-70
2022/03/11 02:55:37;;;;;;;10.40;7.80;;;9.20;51.40;;;;;;4936401;29;20224;-70
2022/03/11 02:58:02;;;;;;;13.30;9.33;;;9.20;51.70;;;;;;4936231;29;20216;-69
2022/03/11 03:00:28;;;;;;;9.57;7.47;;;9.00;52.30;;;;;;4936240;29;20205;-70
2022/03/11 03:02:54;;;;;;;11.67;7.77;;;9.00;51.80;;;;;;4936085;29;20584;-70
2022/03/11 03:05:19;;;;;;;14.37;9.20;;;8.90;52.20;;;;;;4935717;29;20692;-69
2022/03/11 03:07:45;;;;;;;9.17;7.37;;;8.90;52.20;;;;;;4936070;29;20193;-69
2022/03/11 03:10:11;;;;;;;10.43;7.80;;;8.90;52.20;;;;;;4936196;29;20296;-70
2022/03/11 03:12:38;;;;;;;9.40;7.03;;;9.00;51.60;;;;;;4936217;29;20252;-69
2022/03/11 03:15:04;;;;;;;11.73;7.43;;;9.00;51.30;;;;;;4936012;29;20188;-69
2022/03/11 03:17:30;;;;;;;8.70;7.13;;;9.10;51.20;;;;;;4935928;29;20168;-69
2022/03/11 03:19:55;;;;;;;10.20;7.17;;;9.10;51.30;;;;;;4935686;29;20558;-69
2022/03/11 03:22:21;;;;;;;8.73;6.73;;;9.10;51.20;;;;;;4936119;29;20169;-69
2022/03/11 03:24:47;;;;;;;10.13;7.53;;;9.10;51.10;;;;;;4935916;29;20748;-70
2022/03/11 03:27:13;;;;;;;8.40;7.00;;;9.00;51.10;;;;;;4935908;29;20181;-69
2022/03/11 03:29:39;;;;;;;11.40;7.23;;;9.10;51.10;;;;;;4935536;29;20229;-69
2022/03/11 03:32:05;;;;;;;11.73;7.37;;;9.00;51.80;;;;;;4935950;29;20181;-69
2022/03/11 03:34:33;;;;;;;13.27;7.13;;;9.00;51.30;;;;;;4935380;29;20189;-69
2022/03/11 03:37:01;;;;;;;7.37;6.23;;;9.00;51.30;;;;;;4935893;29;20262;-69
2022/03/11 03:39:27;;;;;;;12.67;7.40;;;9.00;51.40;;;;;;4935738;29;20189;-69
2022/03/11 03:41:53;;;;;;;8.13;6.70;;;9.00;51.40;;;;;;4934340;29;20177;-70
2022/03/11 03:44:20;;;;;;;7.87;6.83;;;8.90;51.50;;;;;;4937283;29;20221;-69
2022/03/11 03:46:46;;;;;;;10.67;7.63;;;9.00;52.20;;;;;;4939828;29;20169;-70
2022/03/11 03:49:12;;;;;;;9.93;7.03;;;8.90;51.60;;;;;;4938859;29;20192;-69
2022/03/11 03:51:38;;;;;;;10.37;7.57;;;8.90;51.60;;;;;;4939542;29;20272;-69
2022/03/11 03:54:05;;;;;;;9.57;7.13;;;9.00;51.60;;;;;;4939100;29;20316;-69
2022/03/11 03:56:30;;;;;;;12.37;7.27;;;8.90;51.50;;;;;;4939620;29;20184;-69
2022/03/11 03:58:56;;;;;;;10.57;7.53;;;8.90;51.60;;;;;;4939240;29;20181;-69
2022/03/11 04:01:21;;;;;;;10.63;7.50;;;8.90;51.70;;;;;;4939161;29;20181;-69
2022/03/11 04:03:47;;;;;;;10.07;7.17;;;8.90;51.80;;;;;;4938762;29;20188;-69
2022/03/11 04:06:13;;;;;;;8.53;7.37;;;8.90;51.90;;;;;;4938947;29;20666;-68
2022/03/11 04:08:39;;;;;;;9.00;7.43;;;8.80;51.70;;;;;;4939098;29;20185;-69
2022/03/11 04:11:05;;;;;;;10.63;7.60;;;8.90;52.00;;;;;;4939121;29;20181;-69
2022/03/11 04:13:31;;;;;;;10.27;7.20;;;8.80;52.20;;;;;;4937670;29;20188;-68
2022/03/11 04:15:56;;;;;;;10.57;7.80;;;8.80;52.20;;;;;;4938933;29;20186;-69
2022/03/11 04:18:22;;;;;;;10.03;7.77;;;8.80;52.30;;;;;;4938495;29;20733;-69
2022/03/11 04:20:47;;;;;;;7.77;6.80;;;8.70;52.40;;;;;;4938444;29;20268;-69
2022/03/11 04:23:13;;;;;;;11.50;7.43;;;8.70;52.50;;;;;;4938610;29;20180;-69
2022/03/11 04:25:39;;;;;;;13.40;7.70;;;8.80;52.60;;;;;;4938826;29;20681;-69
2022/03/11 04:28:05;;;;;;;12.27;7.67;;;8.70;52.60;;;;;;4938547;29;20228;-70
2022/03/11 04:30:30;;;;;;;12.63;7.17;;;8.80;52.70;;;;;;4938667;29;20260;-69
2022/03/11 04:32:56;;;;;;;9.37;7.57;;;8.70;52.60;;;;;;4938243;29;20680;-69
2022/03/11 04:35:22;;;;;;;10.93;8.20;;;8.70;52.90;;;;;;4938390;29;20178;-69
2022/03/11 04:37:47;;;;;;;10.27;7.60;;;8.70;53.00;;;;;;4938405;29;20186;-70
2022/03/11 04:40:13;;;;;;;10.27;7.57;;;8.70;53.20;;;;;;4938462;29;20181;-69
2022/03/11 04:42:39;;;;;;;10.83;8.10;;;8.70;53.20;;;;;;4938028;29;20181;-69
2022/03/11 04:45:05;;;;;;;10.40;7.83;;;8.70;53.30;;;;;;4938326;29;20252;-69
2022/03/11 04:47:31;;;;;;;10.57;7.37;;;8.60;53.40;;;;;;4937831;29;20173;-69
2022/03/11 04:49:57;;;;;;;10.17;7.47;;;8.60;53.50;;;;;;4937870;29;20638;-69
2022/03/11 04:52:23;;;;;;;11.47;8.17;;;8.60;53.60;;;;;;4937838;29;20188;-69
2022/03/11 04:54:49;;;;;;;9.40;7.87;;;8.50;53.70;;;;;;4937008;29;20173;-70
2022/03/11 04:57:14;;;;;;;9.37;7.77;;;8.60;54.10;;;;;;4937405;29;20262;-69
2022/03/11 04:59:40;;;;;;;12.73;8.40;;;8.50;54.00;;;;;;4937889;29;20529;-69
2022/03/11 05:02:05;;;;;;;10.93;7.90;;;8.60;54.20;;;;;;4937776;29;20181;-70
2022/03/11 05:04:31;;;;;;;13.03;8.37;;;8.50;54.20;;;;;;4937729;29;20205;-69
2022/03/11 05:06:57;;;;;;;10.97;8.33;;;8.50;54.60;;;;;;4937734;29;20220;-69
2022/03/11 05:09:22;;;;;;;12.00;8.07;;;8.50;54.70;;;;;;4937657;29;20260;-69
2022/03/11 05:11:48;;;;;;;13.37;8.70;;;8.40;54.80;;;;;;4937323;29;20559;-69
2022/03/11 05:14:14;;;;;;;14.17;8.57;;;8.40;55.10;;;;;;4937617;29;20185;-69
2022/03/11 05:16:39;;;;;;;16.43;8.53;;;8.30;55.10;;;;;;4936262;29;20177;-70
2022/03/11 05:19:05;;;;;;;14.03;9.07;;;8.30;55.30;;;;;;4937573;29;20169;-69
2022/03/11 05:21:30;;;;;;;14.00;8.33;;;8.30;55.50;;;;;;4937303;29;20232;-69
2022/03/11 05:23:56;;;;;;;12.57;8.37;;;8.20;55.60;;;;;;4937262;29;20201;-68
2022/03/11 05:26:25;;;;;;;12.53;8.43;;;8.30;56.50;;;;;;4937247;29;20649;-69
2022/03/11 05:28:55;;;;;;;11.50;8.43;;;8.20;56.20;;;;;;4937058;29;20271;-69
2022/03/11 05:31:21;;;;;;;13.60;8.83;;;8.20;56.20;;;;;;4937090;29;20240;-70
2022/03/11 05:33:51;;;;;;;11.80;8.27;;;8.10;56.50;;;;;;4937197;29;20672;-70
2022/03/11 05:36:17;;;;;;;20.07;8.57;;;8.10;56.70;;;;;;4937017;29;20185;-68
2022/03/11 05:38:43;;;;;;;12.17;8.57;;;8.00;57.10;;;;;;4936571;29;20538;-69
2022/03/11 05:41:09;;;;;;;14.23;8.60;;;8.00;57.10;;;;;;4936727;29;20244;-70
2022/03/11 05:43:36;;;;;;;11.23;8.13;;;8.00;57.20;;;;;;4936399;29;20268;-69
2022/03/11 05:46:03;;;;;;;14.37;8.73;;;8.10;57.50;;;;;;4936806;29;20561;-70
2022/03/11 05:48:28;;;;;;;12.10;8.70;;;8.00;57.50;;;;;;4936575;29;20181;-71
2022/03/11 05:50:54;;;;;;;15.53;8.80;;;8.00;57.80;;;;;;4936974;29;20173;-68
2022/03/11 05:53:19;;;;;;;13.57;8.40;;;8.10;58.10;;;;;;4936278;29;20637;-70
2022/03/11 05:55:45;;;;;;;11.53;8.43;;;8.00;58.30;;;;;;4935628;29;20193;-69
2022/03/11 05:58:11;;;;;;;12.07;8.83;;;8.00;58.30;;;;;;4936218;29;20205;-69
2022/03/11 06:00:36;;;;;;;11.57;8.90;;;8.10;58.60;;;;;;4936241;29;20724;-69
2022/03/11 06:03:02;;;;;;;12.10;8.77;;;8.00;58.70;;;;;;4936245;29;20219;-70
2022/03/11 06:05:27;;;;;;;11.53;8.40;;;8.00;58.90;;;;;;4935934;29;20292;-69
2022/03/11 06:07:53;;;;;;;13.10;8.63;;;8.00;59.70;;;;;;4935829;29;20209;-70
2022/03/11 06:10:18;;;;;;;14.50;9.07;;;8.00;59.30;;;;;;4936114;29;20177;-68
2022/03/11 06:12:44;;;;;;;12.47;9.07;;;8.00;59.50;;;;;;4935256;29;20178;-71
2022/03/11 06:15:15;;;;;;;13.83;8.77;;;8.00;59.80;;;;;;4936148;29;20181;-69
2022/03/11 06:17:41;;;;;;;12.83;8.47;;;8.00;60.00;;;;;;4936090;29;20224;-70
2022/03/11 06:20:08;;;;;;;12.43;7.57;;;8.00;60.10;;;;;;4935443;29;20188;-69
2022/03/11 06:22:36;;;;;;;13.07;9.10;;;8.00;60.30;;;;;;4935769;29;20197;-70
2022/03/11 06:25:05;;;;;;;14.57;9.30;;;8.10;60.70;;;;;;4935539;29;20624;-70
2022/03/11 06:27:30;;;;;;;18.83;9.10;;;8.10;60.80;;;;;;4934711;29;20642;-70
2022/03/11 06:29:56;;;;;;;12.87;8.57;;;8.20;60.80;;;;;;4936215;29;20214;-71
2022/03/11 06:32:21;;;;;;;13.37;8.67;;;8.20;61.00;;;;;;4935380;29;20173;-70
2022/03/11 06:34:48;;;;;;;13.50;8.83;;;8.30;61.10;;;;;;4935746;29;20538;-70
2022/03/11 06:37:15;;;;;;;12.80;9.10;;;8.30;61.30;;;;;;4934895;29;20217;-70
2022/03/11 06:39:41;;;;;;;12.67;9.10;;;8.40;61.80;;;;;;4935069;29;20641;-69
2022/03/11 06:42:06;;;;;;;14.17;8.63;;;8.40;61.80;;;;;;4934853;29;20173;-70
2022/03/11 06:44:32;;;;;;;14.43;9.10;;;8.40;62.10;;;;;;4935151;29;20307;-70
2022/03/11 06:46:58;;;;;;;18.93;9.10;;;8.40;61.80;;;;;;4933770;29;20233;-70
2022/03/11 06:49:24;;;;;;;18.37;9.23;;;8.30;62.10;;;;;;4933957;29;20232;-70
2022/03/11 06:51:49;;;;;;;12.17;8.73;;;8.40;62.10;;;;;;4933944;29;20625;-70
2022/03/11 06:54:15;;;;;;;12.90;8.53;;;8.40;62.30;;;;;;4934975;29;20177;-69
2022/03/11 06:56:41;;;;;;;12.30;9.23;;;8.40;62.60;;;;;;4934548;29;20663;-70
2022/03/11 06:59:06;;;;;;;13.97;8.63;;;8.50;62.70;;;;;;4934679;29;20196;-68
2022/03/11 07:01:32;;;;;;;12.47;8.80;;;8.60;63.10;;;;;;4934112;29;20268;-69
2022/03/11 07:03:58;;;;;;;13.33;8.63;;;8.60;63.20;;;;;;4934341;29;20216;-70
2022/03/11 07:06:24;;;;;;;12.90;9.60;;;8.70;63.30;;;;;;4934789;29;20229;-69
2022/03/11 07:08:50;;;;;;;13.43;9.67;;;8.90;63.60;;;;;;4934984;29;20647;-69
2022/03/11 07:11:17;;;;;;;13.33;9.43;;;9.50;62.30;;;;;;4934037;29;20189;-68
2022/03/11 07:13:44;;;;;;;18.97;10.37;;;10.20;59.70;;;;;;4934982;29;20216;-69
2022/03/11 07:16:10;;;;;;;15.50;9.00;;;11.00;58.00;;;;;;4933863;29;20169;-68
2022/03/11 07:18:36;;;;;;;14.63;10.00;;;11.90;56.20;;;;;;4934090;29;20245;-69
2022/03/11 07:21:02;;;;;;;13.47;9.60;;;12.50;54.60;;;;;;4934523;29;20261;-68
2022/03/11 07:23:28;;;;;;;12.37;9.20;;;12.60;53.90;;;;;;4934794;29;20182;-68
2022/03/11 07:25:54;;;;;;;12.73;9.97;;;13.00;53.60;;;;;;4933948;29;20217;-69
2022/03/11 07:28:20;;;;;;;12.87;9.63;;;13.50;52.90;;;;;;4934384;29;20234;-69
2022/03/11 07:30:46;;;;;;;12.77;9.07;;;13.60;52.30;;;;;;4934465;29;20181;-69
2022/03/11 07:33:12;;;;;;;13.83;9.23;;;13.80;51.40;;;;;;4934791;29;20269;-69
2022/03/11 07:35:38;;;;;;;12.63;9.67;;;13.80;51.60;;;;;;4934371;29;20215;-70
2022/03/11 07:38:04;;;;;;;14.30;9.53;;;14.20;51.50;;;;;;4934426;29;20185;-69
2022/03/11 07:40:29;;;;;;;10.37;8.63;;;14.40;50.90;;;;;;4933804;29;20184;-70
2022/03/11 07:42:55;;;;;;;12.40;9.00;;;14.20;50.90;;;;;;4934406;29;20230;-69
2022/03/11 07:45:21;;;;;;;12.13;9.53;;;14.00;51.30;;;;;;4934788;29;20219;-69
2022/03/11 07:47:46;;;;;;;11.97;8.77;;;14.00;51.50;;;;;;4934154;29;20610;-69
2022/03/11 07:50:12;;;;;;;15.37;9.70;;;14.00;51.50;;;;;;4934536;29;20178;-69
2022/03/11 07:52:39;;;;;;;12.13;9.27;;;14.10;51.10;;;;;;4935124;29;20668;-69
2022/03/11 07:55:07;;;;;;;13.20;9.33;;;14.60;51.00;;;;;;4934289;29;20246;-70
2022/03/11 07:57:33;;;;;;;13.00;9.17;;;15.00;50.00;;;;;;4932596;29;20188;-69
2022/03/11 08:00:00;;;;;;;18.27;9.73;;;14.80;50.20;;;;;;4934345;29;20177;-70
2022/03/11 08:02:27;;;;;;;13.87;9.50;;;15.20;50.20;;;;;;4934639;29;20173;-70
2022/03/11 08:04:53;;;;;;;12.97;10.03;;;15.60;49.40;;;;;;4934506;29;20205;-70
2022/03/11 08:07:19;;;;;;;16.07;9.80;;;15.50;49.60;;;;;;4934396;29;20211;-70
2022/03/11 08:09:45;;;;;;;13.20;9.80;;;16.20;48.80;;;;;;4934068;29;20181;-70
2022/03/11 08:12:13;;;;;;;16.23;10.73;;;16.30;48.60;;;;;;4934233;29;20272;-70
2022/03/11 08:14:39;;;;;;;14.47;9.60;;;15.60;48.70;;;;;;4933893;29;20177;-70
2022/03/11 08:17:06;;;;;;;10.60;8.70;;;15.90;49.20;;;;;;4934136;29;20178;-70
2022/03/11 08:19:31;;;;;;;14.60;9.10;;;15.40;49.80;;;;;;4933709;29;20284;-70
2022/03/11 08:21:57;;;;;;;17.27;10.47;;;15.10;51.00;;;;;;4934086;29;20252;-70
2022/03/11 08:24:26;;;;;;;13.20;9.40;;;15.30;51.20;;;;;;4933610;29;20205;-69
2022/03/11 08:26:51;;;;;;;11.90;9.67;;;14.60;51.80;;;;;;4934418;29;20181;-70
2022/03/11 08:29:17;;;;;;;15.07;9.70;;;15.00;52.00;;;;;;4934308;29;20233;-71
2022/03/11 08:31:44;;;;;;;13.00;9.77;;;15.70;51.40;;;;;;4937754;29;20250;-70
2022/03/11 08:34:10;;;;;;;16.67;10.30;;;16.30;50.90;;;;;;4941482;29;20664;-69
2022/03/11 08:36:36;;;;;;;11.47;9.30;;;16.80;49.80;;;;;;4945892;28;20649;-70
2022/03/11 08:39:02;;;;;;;14.30;10.00;;;16.60;49.70;;;;;;4953380;28;20179;-71
2022/03/11 08:41:30;;;;;;;13.80;9.50;;;16.50;49.90;;;;;;4954745;28;20221;-70
2022/03/11 08:43:55;;;;;;;15.07;9.37;;;17.10;49.70;;;;;;4954800;28;20223;-71
2022/03/11 08:46:21;;;;;;;14.20;9.47;;;16.80;49.90;;;;;;4951846;28;20180;-70
2022/03/11 08:48:47;;;;;;;13.50;9.60;;;16.80;50.40;;;;;;4940087;28;20171;-70
2022/03/11 08:51:12;;;;;;;14.60;9.60;;;16.60;50.90;;;;;;4949100;28;20283;-70
2022/03/11 08:53:38;;;;;;;12.50;9.27;;;16.80;50.80;;;;;;4946203;29;20580;-71
2022/03/11 08:56:04;;;;;;;10.85;9.75;;;17.50;51.00;;;;;;4955737;28;20177;-70
2022/03/11 08:58:29;;;;;;;18.10;9.13;;;17.50;50.30;;;;;;4946501;28;20296;-71
2022/03/11 09:00:55;;;;;;;12.52;9.18;;;18.30;49.30;;;;;;4952389;28;20180;-71
2022/03/11 09:03:21;;;;;;;12.50;9.63;;;17.70;49.80;;;;;;4949807;28;20177;-71
2022/03/11 09:05:47;;;;;;;13.52;9.27;;;17.50;50.70;;;;;;4951073;28;20232;-72
2022/03/11 09:08:13;;;;;;;12.77;9.33;;;17.00;51.10;;;;;;4952815;28;20568;-71
2022/03/11 09:10:38;;;;;;;10.13;9.13;;;16.90;51.80;;;;;;4951417;28;20223;-71
2022/03/11 09:13:04;;;;;;;10.20;8.57;;;17.10;52.20;;;;;;4951051;28;20275;-71
2022/03/11 09:15:30;;;;;;;13.95;8.90;;;17.50;52.00;;;;;;4955235;28;20607;-71
2022/03/11 09:17:56;;;;;;;12.52;9.73;;;17.50;51.90;;;;;;4955234;28;20187;-71
2022/03/11 09:20:23;;;;;;;11.15;10.00;;;17.80;51.90;;;;;;4953900;28;20184;-70
2022/03/11 09:22:48;;;;;;;10.45;9.35;;;18.10;51.30;;;;;;4946887;28;20228;-70
2022/03/11 09:25:18;;;;;;;9.27;8.27;;;18.70;51.00;;;;;;4950482;28;20236;-70
2022/03/11 09:27:44;;;;;;;14.13;9.40;;;18.50;51.00;;;;;;4949701;28;20563;-70
2022/03/11 09:30:11;;;;;;;13.52;8.65;;;18.30;51.40;;;;;;4952980;28;20188;-72
2022/03/11 09:32:37;;;;;;;11.20;9.40;;;18.30;51.90;;;;;;4948624;28;20179;-71
2022/03/11 09:35:04;;;;;;;10.40;9.00;;;18.40;51.50;;;;;;4950536;28;20251;-70
2022/03/11 09:37:30;;;;;;;11.77;8.73;;;18.20;52.20;;;;;;4953437;28;20184;-70
2022/03/11 09:39:55;;;;;;;11.70;8.82;;;17.70;52.80;;;;;;4954246;28;20610;-71
2022/03/11 09:42:21;;;;;;;10.13;8.57;;;17.20;53.70;;;;;;4950271;28;20177;-69
2022/03/11 09:44:55;;;;;;;11.32;8.88;;;17.50;54.20;;;;;;4947948;28;20217;-71
2022/03/11 09:47:22;;;;;;;9.80;8.80;;;18.60;52.80;;;;;;4947025;28;20279;-71
2022/03/11 09:49:48;;;;;;;9.10;8.20;;;18.70;52.20;;;;;;4948693;28;20181;-71
2022/03/11 09:52:16;;;;;;;10.90;8.85;;;18.70;52.00;;;;;;4946506;28;20177;-71
2022/03/11 09:54:45;;;;;;;9.40;8.50;;;19.20;51.60;;;;;;4953773;28;20534;-70
2022/03/11 09:57:11;;;;;;;10.40;8.40;;;19.20;51.80;;;;;;4951998;28;20185;-71
2022/03/11 09:59:37;;;;;;;9.18;8.05;;;19.80;51.00;;;;;;4946259;28;20187;-70
2022/03/11 10:02:11;;;;;;;11.98;8.35;;;19.90;50.60;;;;;;4943245;28;20188;-69
2022/03/11 10:04:36;;;;;;;13.82;8.20;;;18.90;51.60;;;;;;4948980;29;20308;-71
2022/03/11 10:07:02;;;;;;;9.75;8.68;;;18.80;53.20;;;;;;4945995;28;20614;-70
2022/03/11 10:09:30;;;;;;;10.77;8.35;;;18.50;52.70;;;;;;4948648;28;20189;-71
2022/03/11 10:11:57;;;;;;;8.95;7.55;;;17.50;54.20;;;;;;4946705;28;20180;-70
2022/03/11 10:14:30;;;;;;;8.27;7.40;;;17.20;55.30;;;;;;4952144;29;20179;-71
2022/03/11 10:16:56;;;;;;;8.93;7.78;;;17.50;55.50;;;;;;4943338;28;20188;-70
2022/03/11 10:19:22;;;;;;;18.02;8.65;;;17.80;55.70;;;;;;4947280;28;20199;-71
2022/03/11 10:21:49;;;;;;;16.65;7.65;;;18.50;54.60;;;;;;4948994;28;20252;-71
2022/03/11 10:24:21;;;;;;;8.85;7.78;;;18.50;54.00;;;;;;4952111;28;20200;-71
2022/03/11 10:26:48;;;;;;;8.30;7.57;;;18.00;54.90;;;;;;4942979;28;20184;-71
2022/03/11 10:29:19;;;;;;;8.38;7.57;;;17.90;55.30;;;;;;4945836;28;20715;-71
2022/03/11 10:31:49;;;;;;;8.30;7.50;;;17.90;55.30;;;;;;4946993;28;20260;-71
2022/03/11 10:34:19;;;;;;;9.10;8.05;;;17.70;55.40;;;;;;4947791;29;20223;-68
2022/03/11 10:36:55;;;;;;;9.98;8.15;;;17.80;55.80;;;;;;4948193;28;20189;-69
2022/03/11 10:39:22;;;;;;;11.70;7.85;;;18.20;55.20;;;;;;4952066;29;20180;-70
2022/03/11 10:41:50;;;;;;;11.30;8.27;;;17.90;55.40;;;;;;4948924;28;20195;-69
2022/03/11 10:44:22;;;;;;;9.00;7.33;;;17.60;56.10;;;;;;4947513;28;20208;-70
2022/03/11 10:46:48;;;;;;;10.30;7.43;;;17.30;57.00;;;;;;4950047;29;20660;-70
2022/03/11 10:49:24;;;;;;;11.40;7.80;;;17.10;57.60;;;;;;4951535;28;20216;-69
2022/03/11 10:51:53;;;;;;;11.90;7.70;;;17.30;57.60;;;;;;4947125;28;20228;-70
2022/03/11 10:54:18;;;;;;;8.98;7.75;;;17.50;58.10;;;;;;4943368;28;20352;-70
2022/03/11 10:56:44;;;;;;;8.43;7.63;;;17.40;57.50;;;;;;4952796;28;20681;-69
2022/03/11 10:59:23;;;;;;;7.87;7.07;;;17.20;57.90;;;;;;4947287;28;20286;-71
2022/03/11 11:01:52;;;;;;;8.02;6.75;;;17.00;58.90;;;;;;4951562;28;20656;-69
2022/03/11 11:04:18;;;;;;;9.95;7.03;;;17.30;59.30;;;;;;4947452;28;20266;-69
2022/03/11 11:06:45;;;;;;;7.07;6.38;;;17.30;58.90;;;;;;4948192;28;20698;-70
2022/03/11 11:09:13;;;;;;;8.18;7.10;;;17.70;58.60;;;;;;4952540;28;20177;-69
2022/03/11 11:11:40;;;;;;;8.95;6.50;;;18.50;58.20;;;;;;4948696;28;20195;-70
2022/03/11 11:14:08;;;;;;;6.32;5.82;;;18.70;57.20;;;;;;4948882;28;20500;-70
2022/03/11 11:16:44;;;;;;;6.85;6.15;;;18.30;57.60;;;;;;4951392;29;20176;-70
2022/03/11 11:19:11;;;;;;;6.88;6.20;;;18.30;58.10;;;;;;4952955;28;20636;-70
2022/03/11 11:21:39;;;;;;;8.00;6.60;;;18.00;58.40;;;;;;4948797;28;20236;-71
2022/03/11 11:24:11;;;;;;;7.47;6.72;;;17.90;58.80;;;;;;4951009;29;20184;-70
2022/03/11 11:26:39;;;;;;;6.38;5.78;;;18.00;58.90;;;;;;4952740;28;20264;-71
2022/03/11 11:29:05;;;;;;;6.70;6.10;;;18.10;58.80;;;;;;4951466;28;20229;-71
2022/03/11 11:31:31;;;;;;;5.50;5.10;;;18.10;59.00;;;;;;4946838;28;20188;-71
2022/03/11 11:33:57;;;;;;;6.32;5.82;;;17.70;59.80;;;;;;4947161;28;20216;-70
2022/03/11 11:36:39;;;;;;;8.70;5.80;;;17.50;60.10;;;;;;4948846;28;20298;-71
2022/03/11 11:39:07;;;;;;;10.18;7.03;;;17.80;60.30;;;;;;4950239;28;20264;-70
2022/03/11 11:41:34;;;;;;;8.43;6.53;;;18.30;59.30;;;;;;4952661;28;20176;-71
2022/03/11 11:44:08;;;;;;;6.82;6.13;;;18.50;58.80;;;;;;4948384;28;20177;-71
2022/03/11 11:46:37;;;;;;;5.45;4.95;;;18.60;59.10;;;;;;4951803;29;20206;-70
2022/03/11 11:49:13;;;;;;;5.50;5.00;;;18.90;58.10;;;;;;4948779;29;20583;-71
2022/03/11 11:51:38;;;;;;;8.32;5.30;;;19.00;57.80;;;;;;4951033;29;20553;-70
2022/03/11 11:54:08;;;;;;;5.63;5.10;;;18.80;58.10;;;;;;4948545;28;20185;-71
2022/03/11 11:56:37;;;;;;;5.32;4.93;;;18.60;58.20;;;;;;4934879;29;20272;-71
2022/03/11 11:59:09;;;;;;;5.90;5.28;;;18.70;58.60;;;;;;4953803;28;20207;-70
2022/03/11 12:01:48;;;;;;;6.90;5.80;;;18.50;58.70;;;;;;4952929;28;20191;-70
2022/03/11 12:04:19;;;;;;;12.85;5.53;;;18.60;58.70;;;;;;4953367;28;20219;-71
2022/03/11 12:06:59;;;;;;;6.75;4.95;;;18.70;58.00;;;;;;4947108;28;20402;-70
2022/03/11 12:09:45;;;;;;;6.05;5.47;;;18.70;58.30;;;;;;4951733;28;20173;-70
2022/03/11 12:12:24;;;;;;;6.47;4.95;;;18.40;58.50;;;;;;4943343;29;20221;-71
2022/03/11 12:17:41;;;;;;;5.93;4.57;;;17.90;59.50;;;;;;4955704;29;20247;-71
2022/03/11 12:20:34;;;;;;;7.22;4.53;;;17.70;59.60;;;;;;4955676;28;20192;-70
2022/03/11 12:23:00;;;;;;;5.70;4.80;;;17.60;60.10;;;;;;4937005;29;20200;-71
2022/03/11 12:25:35;;;;;;;5.23;4.73;;;17.50;60.20;;;;;;4953735;29;20303;-70
2022/03/11 12:28:08;;;;;;;13.23;5.17;;;17.30;60.80;;;;;;4954990;28;20680;-70
2022/03/11 12:30:43;;;;;;;6.67;4.83;;;17.20;61.50;;;;;;4954681;28;20188;-71
2022/03/11 12:33:11;;;;;;;5.83;5.10;;;17.20;61.10;;;;;;4956234;28;20175;-69
2022/03/11 12:35:38;;;;;;;5.93;5.33;;;17.10;61.50;;;;;;4952368;28;20198;-70
2022/03/11 12:38:10;;;;;;;10.00;6.13;;;17.20;61.30;;;;;;4943486;29;20235;-70
2022/03/11 12:40:35;;;;;;;9.80;5.13;;;17.20;61.70;;;;;;4955661;28;20184;-69
2022/03/11 12:43:08;;;;;;;5.83;5.00;;;17.10;61.50;;;;;;4952496;28;20191;-70
2022/03/11 12:45:39;;;;;;;8.40;5.00;;;17.20;62.00;;;;;;4948554;28;20644;-70
2022/03/11 12:48:07;;;;;;;6.23;5.47;;;17.00;61.50;;;;;;4948788;28;20177;-70